Seaspan Raider — CFDY — position and weather

sailwx.info

Track history (hours):
 
Tides and Currents Weather Stations Pressure Air Temp Water Temp Dewpoint Dewpoint Depression Visibility Wind Speed Wind Dir Waves Ship Positions

Seaspan Raider

Last reported at 2017-Dec-11 17:00 UTC. Time now 2017-Dec-12 12:27 UTC.
Position N 46°13' W 124°17'.

Length 32 m; draft 3.7 m.

Type: Tow > 200 m length. MMSI: 316033783.

Date/timePositionNaut miles runAvg speedWind from/ knotsBaromVisibWave heightAir tempDewpointWater temp
2017-Dec-11 17:00N 46°13' W 124°17'5 9.6
2017-Dec-11 16:31N 46°13' W 124°10'5 9.2
2017-Dec-11 16:00N 46°15' W 124°05'4 8.0
2017-Dec-11 15:31N 46°14' W 123°59'4 8.1
2017-Dec-11 15:01N 46°11' W 123°55'4 7.2
2017-Dec-11 14:30N 46°12' W 123°50'0 0.3
2017-Dec-11 14:01N 46°12' W 123°50'2 3.2
2017-Dec-11 13:30N 46°11' W 123°52'0 0.0
2017-Dec-11 13:01N 46°11' W 123°52'4 8.0
2017-Dec-11 12:31N 46°13' W 123°57'2 3.9
2017-Dec-11 12:00N 46°14' W 123°59'2 4.0
2017-Dec-11 11:31N 46°15' W 124°01'3 5.2
2017-Dec-11 11:01N 46°15' W 124°05'2 4.3
2017-Dec-11 10:31N 46°14' W 124°08'1 1.4
2017-Dec-11 10:01N 46°14' W 124°08'2 4.3
2017-Dec-11 09:31N 46°12' W 124°11'2 4.5
2017-Dec-11 09:01N 46°11' W 124°14'3 3.7
2017-Dec-11 08:13N 46°10' W 124°18'1 3.5
2017-Dec-11 08:01N 46°10' W 124°19'2 3.1
2017-Dec-11 07:31N 46°09' W 124°20'2 3.6
2017-Dec-11 07:00N 46°08' W 124°22'2 4.1
2017-Dec-11 06:30N 46°06' W 124°24'2 4.3
2017-Dec-11 06:00N 46°05' W 124°27'1 2.1
2017-Dec-11 05:30N 46°06' W 124°26'2 4.4
2017-Dec-11 05:00N 46°08' W 124°26'2 4.2
2017-Dec-11 04:31N 46°10' W 124°27'2 4.1
2017-Dec-11 04:00N 46°12' W 124°27'2 3.6
2017-Dec-11 03:30N 46°14' W 124°27'2 3.5
2017-Dec-11 03:00N 46°15' W 124°26'2 3.3
2017-Dec-11 02:30N 46°17' W 124°26'1 3.0
2017-Dec-11 02:01N 46°19' W 124°26'2 3.1
2017-Dec-11 01:31N 46°20' W 124°26'2 4.7
2017-Dec-11 01:01N 46°22' W 124°28'3 5.7
2017-Dec-11 00:29N 46°24' W 124°31'1 1.1
2017-Dec-11 00:01N 46°25' W 124°32'2 4.4
2017-Dec-10 23:30N 46°26' W 124°34'2 4.3
2017-Dec-10 23:00N 46°28' W 124°36'2 4.2
2017-Dec-10 22:31N 46°30' W 124°38'2 4.3
2017-Dec-10 22:00N 46°31' W 124°39'2 4.3
2017-Dec-10 21:31N 46°33' W 124°41'2 4.3
2017-Dec-10 21:01N 46°35' W 124°43'2 4.3
2017-Dec-10 20:30N 46°37' W 124°45'2 4.3
2017-Dec-10 20:00N 46°39' W 124°46'4 5.2
2017-Dec-10 19:15N 46°42' W 124°49'1 5.5
2017-Dec-10 19:00N 46°43' W 124°50'2 5.0
2017-Dec-10 18:31N 46°45' W 124°52'2 4.9
2017-Dec-10 18:01N 46°48' W 124°52'2 4.9
2017-Dec-10 17:30N 46°50' W 124°53'2 4.8
2017-Dec-10 17:00N 46°53' W 124°54'3 5.2
2017-Dec-10 16:31N 46°55' W 124°54'3 5.1
2017-Dec-10 16:01N 46°58' W 124°55'2 4.9
2017-Dec-10 15:31N 46°60' W 124°56'3 5.0
2017-Dec-10 14:56N 47°03' W 124°57'2 5.6
2017-Dec-10 14:30N 47°05' W 124°58'3 5.9
2017-Dec-10 14:01N 47°08' W 124°59'4 5.8
2017-Dec-10 13:21N 47°12' W 125°00'2 5.8
2017-Dec-10 13:00N 47°14' W 125°01'3 5.7
2017-Dec-10 12:30N 47°16' W 125°02'3 5.8
2017-Dec-10 11:57N 47°19' W 125°03'64 5.7
2017-Dec-10 00:43N 48°24' W 124°58'7 6.6
2017-Dec-09 23:41N 48°27' W 124°49'2 8.8
2017-Dec-09 23:29N 48°27' W 124°46'4 8.4
2017-Dec-09 23:01N 48°25' W 124°41'4 8.9
2017-Dec-09 22:31N 48°24' W 124°35'5 8.9
2017-Dec-09 22:00N 48°22' W 124°28'6 9.3
2017-Dec-09 21:21N 48°19' W 124°20'25 8.2
2017-Dec-09 18:18N 48°13' W 123°43'3 7.8
2017-Dec-09 17:54N 48°15' W 123°40'3 7.2
2017-Dec-09 17:30N 48°15' W 123°35'3 6.7
2017-Dec-09 16:59N 48°15' W 123°30'3 6.0
2017-Dec-09 16:30N 48°16' W 123°26'9 5.7
2017-Dec-09 14:56N 48°21' W 123°15'2 5.4
2017-Dec-09 14:31N 48°23' W 123°13'2 3.9
2017-Dec-09 14:00N 48°25' W 123°13'3 6.7
2017-Dec-09 13:30N 48°28' W 123°13'4 7.1
2017-Dec-09 13:00N 48°32' W 123°13'4 7.2
2017-Dec-09 12:30N 48°35' W 123°14'19 5.6
2017-Dec-09 09:08N 48°54' W 123°09'1 9.1
2017-Dec-09 09:00N 48°55' W 123°10'19 8.5
2017-Dec-09 06:43N 49°08' W 123°31'57 3.2
2017-Dec-08 13:01N 49°43' W 124°39'0 6.7
2017-Dec-08 12:59N 49°44' W 124°39'4 7.2
2017-Dec-08 12:29N 49°47' W 124°40'4 7.3
2017-Dec-08 12:00N 49°50' W 124°37'75 6.7
2017-Dec-08 00:51N 48°59' W 123°12'3 8.6
2017-Dec-08 00:30N 48°57' W 123°08'21 5.5
2017-Dec-07 20:43N 48°37' W 123°13'2 7.0
2017-Dec-07 20:28N 48°35' W 123°13'3 6.8
2017-Dec-07 20:00N 48°32' W 123°11'3 5.4
2017-Dec-07 19:30N 48°29' W 123°10'4 8.1
2017-Dec-07 19:00N 48°25' W 123°10'3 6.9
2017-Dec-07 18:30N 48°22' W 123°13'4 8.3
2017-Dec-07 18:00N 48°20' W 123°17'35 8.9
2017-Dec-07 14:05N 48°16' W 124°09'1 9.6
2017-Dec-07 13:59N 48°17' W 124°11'5 9.7
2017-Dec-07 13:30N 48°19' W 124°17'5 9.3
2017-Dec-07 13:00N 48°21' W 124°23'4 8.9
2017-Dec-07 12:30N 48°23' W 124°29'5 9.2
2017-Dec-07 12:01N 48°25' W 124°35'4 8.4
2017-Dec-07 11:30N 48°27' W 124°41'4 7.8
2017-Dec-07 10:58N 48°27' W 124°47'3 7.2
2017-Dec-07 10:30N 48°27' W 124°53'101 8.7
2017-Dec-06 23:00N 46°46' W 124°50'5 8.8
2017-Dec-06 22:29N 46°42' W 124°48'5 9.4
2017-Dec-06 21:59N 46°37' W 124°46'4 9.2
2017-Dec-06 21:30N 46°33' W 124°44'5 9.1
2017-Dec-06 21:01N 46°29' W 124°42'  
2017-Dec-04 04:58N 49°08' W 123°31'56 3.5
2017-Dec-03 12:49N 49°43' W 124°38'2 6.2
2017-Dec-03 12:29N 49°45' W 124°40'3 6.4
2017-Dec-03 11:59N 49°48' W 124°39'4 6.3
2017-Dec-03 11:25N 49°51' W 124°36'3 4.7
2017-Dec-03 10:49N 49°49' W 124°34'64 5.8
2017-Dec-02 23:52N 49°18' W 123°07'1 0.1
2017-Dec-02 14:38N 49°19' W 123°06'0 0.0
2017-Dec-02 14:28N 49°19' W 123°06'0 0.0
2017-Dec-02 13:59N 49°19' W 123°06'0 0.0
2017-Dec-02 13:29N 49°19' W 123°06'0 0.0
2017-Dec-02 13:00N 49°19' W 123°06'0 0.0
2017-Dec-02 12:28N 49°19' W 123°06'0 0.0
2017-Dec-02 12:00N 49°19' W 123°06'0 0.0
2017-Dec-02 11:30N 49°19' W 123°06'0 0.0
2017-Dec-02 10:10N 49°19' W 123°06'0 0.0
2017-Dec-02 05:03N 49°19' W 123°06'0 0.0
2017-Dec-02 04:52N 49°19' W 123°06'0 0.0
2017-Dec-02 04:20N 49°19' W 123°06'0 0.0
2017-Dec-02 03:51N 49°19' W 123°06'0 0.0
2017-Dec-02 03:05N 49°19' W 123°06'0 0.0
2017-Dec-02 02:55N 49°19' W 123°06'0 0.0
2017-Dec-02 02:08N 49°19' W 123°06'0 0.0
2017-Dec-02 00:48N 49°19' W 123°06'0 0.0
2017-Dec-01 23:45N 49°19' W 123°06'0 0.0
2017-Dec-01 23:07N 49°19' W 123°06'0 0.0
2017-Dec-01 20:21N 49°19' W 123°06'0 0.0
2017-Dec-01 20:00N 49°19' W 123°06'0 0.0
2017-Dec-01 19:23N 49°19' W 123°06'0 0.0
2017-Dec-01 18:33N 49°19' W 123°06'0 0.0
2017-Dec-01 18:10N 49°19' W 123°06'0 0.0
2017-Dec-01 17:59N 49°19' W 123°06'0 0.0
2017-Dec-01 17:30N 49°19' W 123°06'  
Track history (hours):
 
Tides and Currents Weather Stations Pressure Air Temp Water Temp Dewpoint Dewpoint Depression Visibility Wind Speed Wind Dir Waves Ship Positions

Seaspan Raider

Last reported at 2017-Dec-11 17:00 UTC. Time now 2017-Dec-12 12:27 UTC.
Position N 46°13' W 124°17'.

Length 32 m; draft 3.7 m.

Type: Tow > 200 m length. MMSI: 316033783.

Date/timePositionNaut miles runAvg speedWind from/ knotsBaromVisibWave heightAir tempDewpointWater temp
2017-Dec-11 17:00N 46°13' W 124°17'5 9.6
2017-Dec-11 16:31N 46°13' W 124°10'5 9.2
2017-Dec-11 16:00N 46°15' W 124°05'4 8.0
2017-Dec-11 15:31N 46°14' W 123°59'4 8.1
2017-Dec-11 15:01N 46°11' W 123°55'4 7.2
2017-Dec-11 14:30N 46°12' W 123°50'0 0.3
2017-Dec-11 14:01N 46°12' W 123°50'2 3.2
2017-Dec-11 13:30N 46°11' W 123°52'0 0.0
2017-Dec-11 13:01N 46°11' W 123°52'4 8.0
2017-Dec-11 12:31N 46°13' W 123°57'2 3.9
2017-Dec-11 12:00N 46°14' W 123°59'2 4.0
2017-Dec-11 11:31N 46°15' W 124°01'3 5.2
2017-Dec-11 11:01N 46°15' W 124°05'2 4.3
2017-Dec-11 10:31N 46°14' W 124°08'1 1.4
2017-Dec-11 10:01N 46°14' W 124°08'2 4.3
2017-Dec-11 09:31N 46°12' W 124°11'2 4.5
2017-Dec-11 09:01N 46°11' W 124°14'3 3.7
2017-Dec-11 08:13N 46°10' W 124°18'1 3.5
2017-Dec-11 08:01N 46°10' W 124°19'2 3.1
2017-Dec-11 07:31N 46°09' W 124°20'2 3.6
2017-Dec-11 07:00N 46°08' W 124°22'2 4.1
2017-Dec-11 06:30N 46°06' W 124°24'2 4.3
2017-Dec-11 06:00N 46°05' W 124°27'1 2.1
2017-Dec-11 05:30N 46°06' W 124°26'2 4.4
2017-Dec-11 05:00N 46°08' W 124°26'2 4.2
2017-Dec-11 04:31N 46°10' W 124°27'2 4.1
2017-Dec-11 04:00N 46°12' W 124°27'2 3.6
2017-Dec-11 03:30N 46°14' W 124°27'2 3.5
2017-Dec-11 03:00N 46°15' W 124°26'2 3.3
2017-Dec-11 02:30N 46°17' W 124°26'1 3.0
2017-Dec-11 02:01N 46°19' W 124°26'2 3.1
2017-Dec-11 01:31N 46°20' W 124°26'2 4.7
2017-Dec-11 01:01N 46°22' W 124°28'3 5.7
2017-Dec-11 00:29N 46°24' W 124°31'1 1.1
2017-Dec-11 00:01N 46°25' W 124°32'2 4.4
2017-Dec-10 23:30N 46°26' W 124°34'2 4.3
2017-Dec-10 23:00N 46°28' W 124°36'2 4.2
2017-Dec-10 22:31N 46°30' W 124°38'2 4.3
2017-Dec-10 22:00N 46°31' W 124°39'2 4.3
2017-Dec-10 21:31N 46°33' W 124°41'2 4.3
2017-Dec-10 21:01N 46°35' W 124°43'2 4.3
2017-Dec-10 20:30N 46°37' W 124°45'2 4.3
2017-Dec-10 20:00N 46°39' W 124°46'4 5.2
2017-Dec-10 19:15N 46°42' W 124°49'1 5.5
2017-Dec-10 19:00N 46°43' W 124°50'2 5.0
2017-Dec-10 18:31N 46°45' W 124°52'2 4.9
2017-Dec-10 18:01N 46°48' W 124°52'2 4.9
2017-Dec-10 17:30N 46°50' W 124°53'2 4.8
2017-Dec-10 17:00N 46°53' W 124°54'3 5.2
2017-Dec-10 16:31N 46°55' W 124°54'3 5.1
2017-Dec-10 16:01N 46°58' W 124°55'2 4.9
2017-Dec-10 15:31N 46°60' W 124°56'3 5.0
2017-Dec-10 14:56N 47°03' W 124°57'2 5.6
2017-Dec-10 14:30N 47°05' W 124°58'3 5.9
2017-Dec-10 14:01N 47°08' W 124°59'4 5.8
2017-Dec-10 13:21N 47°12' W 125°00'2 5.8
2017-Dec-10 13:00N 47°14' W 125°01'3 5.7
2017-Dec-10 12:30N 47°16' W 125°02'3 5.8
2017-Dec-10 11:57N 47°19' W 125°03'64 5.7
2017-Dec-10 00:43N 48°24' W 124°58'7 6.6
2017-Dec-09 23:41N 48°27' W 124°49'2 8.8
2017-Dec-09 23:29N 48°27' W 124°46'4 8.4
2017-Dec-09 23:01N 48°25' W 124°41'4 8.9
2017-Dec-09 22:31N 48°24' W 124°35'5 8.9
2017-Dec-09 22:00N 48°22' W 124°28'6 9.3
2017-Dec-09 21:21N 48°19' W 124°20'25 8.2
2017-Dec-09 18:18N 48°13' W 123°43'3 7.8
2017-Dec-09 17:54N 48°15' W 123°40'3 7.2
2017-Dec-09 17:30N 48°15' W 123°35'3 6.7
2017-Dec-09 16:59N 48°15' W 123°30'3 6.0
2017-Dec-09 16:30N 48°16' W 123°26'9 5.7
2017-Dec-09 14:56N 48°21' W 123°15'2 5.4
2017-Dec-09 14:31N 48°23' W 123°13'2 3.9
2017-Dec-09 14:00N 48°25' W 123°13'3 6.7
2017-Dec-09 13:30N 48°28' W 123°13'4 7.1
2017-Dec-09 13:00N 48°32' W 123°13'4 7.2
2017-Dec-09 12:30N 48°35' W 123°14'19 5.6
2017-Dec-09 09:08N 48°54' W 123°09'1 9.1
2017-Dec-09 09:00N 48°55' W 123°10'19 8.5
2017-Dec-09 06:43N 49°08' W 123°31'57 3.2
2017-Dec-08 13:01N 49°43' W 124°39'0 6.7
2017-Dec-08 12:59N 49°44' W 124°39'4 7.2
2017-Dec-08 12:29N 49°47' W 124°40'4 7.3
2017-Dec-08 12:00N 49°50' W 124°37'75 6.7
2017-Dec-08 00:51N 48°59' W 123°12'3 8.6
2017-Dec-08 00:30N 48°57' W 123°08'21 5.5
2017-Dec-07 20:43N 48°37' W 123°13'2 7.0
2017-Dec-07 20:28N 48°35' W 123°13'3 6.8
2017-Dec-07 20:00N 48°32' W 123°11'3 5.4
2017-Dec-07 19:30N 48°29' W 123°10'4 8.1
2017-Dec-07 19:00N 48°25' W 123°10'3 6.9
2017-Dec-07 18:30N 48°22' W 123°13'4 8.3
2017-Dec-07 18:00N 48°20' W 123°17'35 8.9
2017-Dec-07 14:05N 48°16' W 124°09'1 9.6
2017-Dec-07 13:59N 48°17' W 124°11'5 9.7
2017-Dec-07 13:30N 48°19' W 124°17'5 9.3
2017-Dec-07 13:00N 48°21' W 124°23'4 8.9
2017-Dec-07 12:30N 48°23' W 124°29'5 9.2
2017-Dec-07 12:01N 48°25' W 124°35'4 8.4
2017-Dec-07 11:30N 48°27' W 124°41'4 7.8
2017-Dec-07 10:58N 48°27' W 124°47'3 7.2
2017-Dec-07 10:30N 48°27' W 124°53'101 8.7
2017-Dec-06 23:00N 46°46' W 124°50'5 8.8
2017-Dec-06 22:29N 46°42' W 124°48'5 9.4
2017-Dec-06 21:59N 46°37' W 124°46'4 9.2
2017-Dec-06 21:30N 46°33' W 124°44'5 9.1
2017-Dec-06 21:01N 46°29' W 124°42'  
2017-Dec-04 04:58N 49°08' W 123°31'56 3.5
2017-Dec-03 12:49N 49°43' W 124°38'2 6.2
2017-Dec-03 12:29N 49°45' W 124°40'3 6.4
2017-Dec-03 11:59N 49°48' W 124°39'4 6.3
2017-Dec-03 11:25N 49°51' W 124°36'3 4.7
2017-Dec-03 10:49N 49°49' W 124°34'64 5.8
2017-Dec-02 23:52N 49°18' W 123°07'1 0.1
2017-Dec-02 14:38N 49°19' W 123°06'0 0.0
2017-Dec-02 14:28N 49°19' W 123°06'0 0.0
2017-Dec-02 13:59N 49°19' W 123°06'0 0.0
2017-Dec-02 13:29N 49°19' W 123°06'0 0.0
2017-Dec-02 13:00N 49°19' W 123°06'0 0.0
2017-Dec-02 12:28N 49°19' W 123°06'0 0.0
2017-Dec-02 12:00N 49°19' W 123°06'0 0.0
2017-Dec-02 11:30N 49°19' W 123°06'0 0.0
2017-Dec-02 10:10N 49°19' W 123°06'0 0.0
2017-Dec-02 05:03N 49°19' W 123°06'0 0.0
2017-Dec-02 04:52N 49°19' W 123°06'0 0.0
2017-Dec-02 04:20N 49°19' W 123°06'0 0.0
2017-Dec-02 03:51N 49°19' W 123°06'0 0.0
2017-Dec-02 03:05N 49°19' W 123°06'0 0.0
2017-Dec-02 02:55N 49°19' W 123°06'0 0.0
2017-Dec-02 02:08N 49°19' W 123°06'0 0.0
2017-Dec-02 00:48N 49°19' W 123°06'0 0.0
2017-Dec-01 23:45N 49°19' W 123°06'0 0.0
2017-Dec-01 23:07N 49°19' W 123°06'0 0.0
2017-Dec-01 20:21N 49°19' W 123°06'0 0.0
2017-Dec-01 20:00N 49°19' W 123°06'0 0.0
2017-Dec-01 19:23N 49°19' W 123°06'0 0.0
2017-Dec-01 18:33N 49°19' W 123°06'0 0.0
2017-Dec-01 18:10N 49°19' W 123°06'0 0.0
2017-Dec-01 17:59N 49°19' W 123°06'0 0.0
2017-Dec-01 17:30N 49°19' W 123°06'  

Dump ship's entire track history